createdAt,value
2018-10-18T00:01:55.664Z,37.20
2018-10-18T00:04:23.330Z,38.73
2018-10-18T00:06:50.742Z,39.55
2018-10-18T00:09:18.111Z,37.98
2018-10-18T00:11:45.420Z,39.47
2018-10-18T00:14:12.983Z,42.80
2018-10-18T00:16:40.621Z,40.35
2018-10-18T00:19:08.144Z,46.63
2018-10-18T00:21:35.793Z,42.03
2018-10-18T00:24:03.273Z,52.50
2018-10-18T00:26:30.854Z,46.75
2018-10-18T00:28:58.659Z,48.13
2018-10-18T00:31:26.069Z,46.53
2018-10-18T00:33:53.481Z,50.63
2018-10-18T00:36:21.172Z,52.03
2018-10-18T00:38:48.511Z,49.03
2018-10-18T00:41:15.898Z,59.00
2018-10-18T00:43:44.266Z,54.50
2018-10-18T00:46:12.229Z,53.68
2018-10-18T00:48:39.594Z,56.28
2018-10-18T00:51:06.951Z,96.20
2018-10-18T00:53:34.650Z,59.33
2018-10-18T00:56:02.299Z,85.87
2018-10-18T00:58:29.839Z,63.17
2018-10-18T01:00:57.195Z,58.70
2018-10-18T01:03:24.542Z,78.52
2018-10-18T01:05:51.963Z,54.80
2018-10-18T01:08:19.645Z,50.70
2018-10-18T01:10:47.022Z,55.40
2018-10-18T01:13:14.725Z,63.80
2018-10-18T01:15:42.114Z,70.20
2018-10-18T01:18:09.846Z,69.20
2018-10-18T01:20:37.184Z,99.28
2018-10-18T01:23:05.246Z,66.87
2018-10-18T01:25:32.610Z,92.47
2018-10-18T01:28:00.256Z,80.45
2018-10-18T01:30:27.913Z,72.00
2018-10-18T01:32:55.686Z,68.25
2018-10-18T01:35:23.392Z,74.60
2018-10-18T01:37:50.729Z,72.20
2018-10-18T01:40:18.122Z,85.00
2018-10-18T01:42:45.452Z,79.45
2018-10-18T01:45:13.056Z,109.57
2018-10-18T01:47:40.752Z,80.40
2018-10-18T01:50:09.375Z,87.65
2018-10-18T01:52:36.871Z,136.70
2018-10-18T01:55:05.558Z,150.25
2018-10-18T01:57:33.237Z,164.80
2018-10-18T02:00:01.186Z,288.70
2018-10-18T02:02:28.509Z,270.15
2018-10-18T02:04:57.052Z,538.17
2018-10-18T02:07:25.804Z,253.22
2018-10-18T02:09:53.523Z,338.50
2018-10-18T02:12:21.229Z,398.00
2018-10-18T02:14:48.882Z,517.77
2018-10-18T02:17:16.578Z,561.45
2018-10-18T02:19:43.925Z,412.50
2018-10-18T02:22:11.293Z,369.20
2018-10-18T02:24:39.016Z,419.10
2018-10-18T02:27:06.668Z,740.25
2018-10-18T02:29:34.286Z,499.58
2018-10-18T02:32:01.913Z,331.25
2018-10-18T02:34:29.256Z,336.77
2018-10-18T02:36:56.657Z,479.68
2018-10-18T02:39:24.130Z,893.28
2018-10-18T02:41:51.596Z,618.80
2018-10-18T02:44:18.905Z,558.00
2018-10-18T02:46:46.321Z,762.67
2018-10-18T02:49:13.652Z,978.60
2018-10-18T02:51:41.309Z,804.92
2018-10-18T02:54:09.328Z,741.00
2018-10-18T02:56:36.771Z,822.15
2018-10-18T02:59:04.493Z,443.70
2018-10-18T03:01:33.217Z,737.75
2018-10-18T03:04:00.614Z,528.62
2018-10-18T03:06:28.192Z,483.92
2018-10-18T03:08:55.936Z,469.15
2018-10-18T03:11:24.330Z,589.05
2018-10-18T03:13:51.688Z,299.27
2018-10-18T03:16:19.350Z,539.87
2018-10-18T03:18:46.679Z,544.52
2018-10-18T03:21:14.241Z,383.53
2018-10-18T03:23:41.765Z,432.43
2018-10-18T03:26:09.256Z,365.87
2018-10-18T03:28:37.269Z,297.65
2018-10-18T03:31:04.824Z,191.10
2018-10-18T03:33:32.173Z,310.00
2018-10-18T03:36:00.163Z,328.88
2018-10-18T03:38:27.586Z,333.65
2018-10-18T03:40:55.816Z,257.67
2018-10-18T03:43:23.248Z,302.48
2018-10-18T03:45:50.619Z,229.07
2018-10-18T03:48:18.129Z,322.95
2018-10-18T03:50:46.131Z,229.15
2018-10-18T03:53:13.501Z,237.83
2018-10-18T03:55:40.915Z,206.78
2018-10-18T03:58:08.363Z,183.93
2018-10-18T04:00:36.092Z,234.87
2018-10-18T04:03:03.446Z,192.07
2018-10-18T04:05:31.190Z,225.43
2018-10-18T04:07:58.572Z,201.32
2018-10-18T04:10:25.982Z,206.55
2018-10-18T04:12:53.461Z,188.03
2018-10-18T04:15:20.833Z,213.22
2018-10-18T04:17:48.622Z,195.07
2018-10-18T04:20:16.016Z,202.25
2018-10-18T04:22:43.699Z,203.65
2018-10-18T04:25:11.242Z,210.32
2018-10-18T04:27:38.541Z,184.28
2018-10-18T04:30:06.459Z,154.78
2018-10-18T04:32:33.752Z,179.32
2018-10-18T04:35:01.386Z,170.05
2018-10-18T04:37:28.917Z,180.63
2018-10-18T04:39:56.072Z,177.93
2018-10-18T04:42:23.423Z,169.25
2018-10-18T04:44:51.113Z,175.82
2018-10-18T04:47:18.673Z,168.50
2018-10-18T04:49:46.014Z,173.95
2018-10-18T04:52:13.344Z,173.57
2018-10-18T04:54:40.866Z,168.00
2018-10-18T04:57:09.638Z,182.47
2018-10-18T04:59:37.025Z,171.60
2018-10-18T05:02:04.936Z,158.12
2018-10-18T05:04:32.393Z,167.40
2018-10-18T05:06:59.882Z,165.70
2018-10-18T05:09:27.542Z,141.73
2018-10-18T05:11:55.801Z,148.10
2018-10-18T05:14:23.479Z,159.35
2018-10-18T05:16:50.918Z,149.55
2018-10-18T05:19:18.512Z,166.68
2018-10-18T05:21:45.796Z,150.15
2018-10-18T05:24:13.271Z,131.65
2018-10-18T05:26:40.631Z,125.02
2018-10-18T05:29:08.545Z,122.60
2018-10-18T05:31:35.922Z,123.70
2018-10-18T05:34:03.289Z,122.05
2018-10-18T05:36:31.065Z,122.10
2018-10-18T05:38:58.670Z,118.65
2018-10-18T05:41:26.047Z,115.65
2018-10-18T05:43:53.684Z,112.20
2018-10-18T05:46:21.082Z,108.83
2018-10-18T05:48:48.514Z,106.60
2018-10-18T05:51:16.776Z,88.50
2018-10-18T05:53:44.568Z,87.17
2018-10-18T05:56:12.833Z,85.70
2018-10-18T05:58:40.188Z,95.30
2018-10-18T06:01:08.272Z,77.40
2018-10-18T06:03:36.623Z,72.50
2018-10-18T06:06:04.294Z,79.97
2018-10-18T06:08:31.988Z,85.38
2018-10-18T06:11:05.145Z,86.80
2018-10-18T06:13:32.740Z,88.40
2018-10-18T06:16:00.585Z,79.00
2018-10-18T06:18:27.945Z,80.85
2018-10-18T06:20:55.574Z,89.30
2018-10-18T06:23:23.244Z,87.42
2018-10-18T06:25:51.009Z,68.45
2018-10-18T06:28:18.895Z,63.70
2018-10-18T06:30:46.529Z,73.87
2018-10-18T06:33:13.922Z,70.67
2018-10-18T06:35:41.453Z,75.60
2018-10-18T06:38:09.097Z,77.90
2018-10-18T06:40:36.466Z,78.57
2018-10-18T06:43:04.183Z,79.17
2018-10-18T06:45:31.802Z,82.05
2018-10-18T06:47:59.485Z,77.47
2018-10-18T06:50:27.419Z,86.25
2018-10-18T06:52:55.306Z,78.35
2018-10-18T06:55:22.682Z,72.37
2018-10-18T06:57:50.631Z,70.87
2018-10-18T07:00:24.179Z,72.23
2018-10-18T07:02:51.752Z,73.53
2018-10-18T07:05:19.450Z,74.22
2018-10-18T07:07:47.031Z,71.65
2018-10-18T07:10:14.601Z,73.92
2018-10-18T07:12:42.431Z,64.53
2018-10-18T07:15:10.911Z,68.80
2018-10-18T07:17:39.537Z,71.87
2018-10-18T07:20:07.484Z,62.08
2018-10-18T07:22:35.654Z,64.80
2018-10-18T07:25:03.338Z,59.00
2018-10-18T07:27:30.774Z,68.87
2018-10-18T07:29:58.496Z,62.50
2018-10-18T07:32:26.658Z,65.10
2018-10-18T07:34:54.261Z,67.07
2018-10-18T07:37:21.876Z,70.20
2018-10-18T07:39:49.218Z,67.37
2018-10-18T07:42:16.716Z,62.70
2018-10-18T07:44:44.057Z,60.75
2018-10-18T07:47:11.417Z,64.17
2018-10-18T07:49:38.740Z,60.30
2018-10-18T07:52:06.309Z,60.75
2018-10-18T07:54:33.665Z,58.83
2018-10-18T07:57:01.016Z,60.43
2018-10-18T07:59:28.373Z,56.18
2018-10-18T08:01:55.790Z,54.08
2018-10-18T08:04:23.188Z,57.50
2018-10-18T08:06:50.813Z,53.52
2018-10-18T08:09:18.292Z,55.30
2018-10-18T08:11:45.941Z,53.80
2018-10-18T08:14:13.354Z,52.08
2018-10-18T08:16:41.616Z,51.92
2018-10-18T08:19:09.271Z,71.25
2018-10-18T08:21:36.904Z,61.42
2018-10-18T08:24:04.549Z,54.00
2018-10-18T08:26:32.148Z,52.40
2018-10-18T08:28:59.888Z,51.77
2018-10-18T08:31:28.146Z,56.35
2018-10-18T08:33:56.123Z,58.65
2018-10-18T08:36:24.392Z,57.05
2018-10-18T08:38:52.239Z,54.18
2018-10-18T08:41:20.417Z,58.45
2018-10-18T08:43:48.741Z,56.65
2018-10-18T08:46:16.341Z,62.38
2018-10-18T08:48:44.007Z,54.53
2018-10-18T08:51:27.784Z,53.38
2018-10-18T08:53:55.865Z,56.55
2018-10-18T08:56:24.580Z,48.33
2018-10-18T08:58:53.145Z,46.33
2018-10-18T09:01:20.837Z,47.93
2018-10-18T09:03:49.202Z,46.98
2018-10-18T09:06:18.328Z,50.55
2018-10-18T09:08:46.424Z,58.45
2018-10-18T09:11:14.295Z,69.37
2018-10-18T09:13:43.170Z,49.67
2018-10-18T09:16:11.888Z,42.87
2018-10-18T09:18:39.456Z,42.35
2018-10-18T09:21:07.313Z,45.07
2018-10-18T09:23:36.364Z,48.35
2018-10-18T09:26:04.307Z,42.43
2018-10-18T09:28:31.981Z,42.88
2018-10-18T09:30:59.583Z,44.05
2018-10-18T09:33:28.193Z,43.08
2018-10-18T09:35:56.055Z,41.25
2018-10-18T09:38:24.384Z,40.30
2018-10-18T09:40:52.316Z,44.70
2018-10-18T09:43:21.779Z,39.00
2018-10-18T09:45:49.808Z,42.53
2018-10-18T09:48:17.446Z,42.05
2018-10-18T09:50:45.676Z,44.70
2018-10-18T09:53:13.715Z,43.27
2018-10-18T09:55:41.562Z,44.17
2018-10-18T09:58:09.013Z,44.05
2018-10-18T10:00:43.092Z,43.40
2018-10-18T10:03:11.076Z,46.25
2018-10-18T10:05:38.897Z,45.70
2018-10-18T10:08:06.603Z,50.25
2018-10-18T10:10:34.509Z,43.85
2018-10-18T10:13:03.075Z,45.03
2018-10-18T10:15:32.362Z,43.65
2018-10-18T10:18:01.128Z,40.83
2018-10-18T10:20:29.916Z,42.08
2018-10-18T10:22:58.654Z,40.70
2018-10-18T10:25:26.718Z,40.73
2018-10-18T10:27:54.865Z,42.57
2018-10-18T10:30:22.805Z,40.13
2018-10-18T10:32:50.607Z,42.13
2018-10-18T10:35:18.662Z,44.00
2018-10-18T10:37:46.423Z,41.18
2018-10-18T10:40:14.376Z,43.13
2018-10-18T10:42:43.058Z,46.60
2018-10-18T10:45:12.014Z,47.45
2018-10-18T10:47:39.673Z,42.57
2018-10-18T10:50:08.463Z,42.33
2018-10-18T10:52:36.973Z,45.78
2018-10-18T10:55:04.834Z,43.95
2018-10-18T10:57:33.282Z,44.03
2018-10-18T11:00:02.025Z,43.45
2018-10-18T11:02:29.639Z,48.87
2018-10-18T11:04:57.325Z,46.23
2018-10-18T11:07:25.058Z,42.80
2018-10-18T11:09:54.008Z,41.48
2018-10-18T11:12:21.841Z,39.80
2018-10-18T11:14:49.642Z,36.80
2018-10-18T11:17:17.334Z,39.58
2018-10-18T11:19:45.689Z,36.45
2018-10-18T11:22:14.133Z,32.83
2018-10-18T11:24:42.818Z,31.37
2018-10-18T11:27:10.549Z,29.27
2018-10-18T11:29:38.876Z,30.27
2018-10-18T11:32:06.846Z,30.85
2018-10-18T11:34:34.763Z,29.87
2018-10-18T11:37:02.308Z,32.45
2018-10-18T11:39:29.849Z,32.05
2018-10-18T11:41:57.586Z,28.30
2018-10-18T11:44:30.632Z,28.13
2018-10-18T11:46:58.545Z,25.45
2018-10-18T11:49:26.467Z,24.23
2018-10-18T11:51:54.470Z,24.52
2018-10-18T11:54:22.182Z,22.80
2018-10-18T11:56:49.821Z,23.40
2018-10-18T11:59:17.560Z,19.40
2018-10-18T12:01:45.862Z,20.75
2018-10-18T12:04:13.678Z,22.20
2018-10-18T12:06:41.275Z,19.57
2018-10-18T12:09:09.593Z,20.37
2018-10-18T12:11:37.084Z,20.77
2018-10-18T12:14:05.309Z,21.10
2018-10-18T12:16:32.985Z,24.67
2018-10-18T12:19:00.738Z,23.70
2018-10-18T12:21:28.608Z,23.35
2018-10-18T12:23:56.619Z,21.93
2018-10-18T12:26:24.221Z,22.20
2018-10-18T12:28:51.767Z,18.62
2018-10-18T12:31:19.296Z,20.32
2018-10-18T12:33:46.808Z,20.10
2018-10-18T12:36:14.745Z,20.88
2018-10-18T12:38:42.375Z,18.95
2018-10-18T12:41:10.165Z,18.80
2018-10-18T12:43:37.793Z,19.15
2018-10-18T12:46:05.408Z,14.15
2018-10-18T12:48:33.129Z,20.57
2018-10-18T12:51:00.595Z,15.50
2018-10-18T12:53:28.142Z,17.65
2018-10-18T12:55:55.778Z,14.43
2018-10-18T12:58:23.684Z,14.15
2018-10-18T13:00:51.397Z,17.50
2018-10-18T13:03:19.136Z,16.80
2018-10-18T13:05:46.717Z,15.93
2018-10-18T13:08:14.343Z,17.82
2018-10-18T13:10:41.920Z,13.13
2018-10-18T13:13:09.695Z,17.57
2018-10-18T13:15:37.636Z,13.80
2018-10-18T13:18:05.649Z,14.33
2018-10-18T13:20:33.233Z,16.23
2018-10-18T13:23:01.000Z,15.48
2018-10-18T13:25:28.698Z,13.93
2018-10-18T13:27:56.136Z,14.58
2018-10-18T13:30:23.659Z,15.40
2018-10-18T13:32:51.179Z,16.43
2018-10-18T13:35:18.761Z,16.17
2018-10-18T13:37:46.323Z,13.80
2018-10-18T13:40:14.021Z,13.93
2018-10-18T13:42:41.659Z,19.50
2018-10-18T13:45:09.364Z,13.00
2018-10-18T13:47:36.924Z,20.48
2018-10-18T13:50:05.111Z,13.23
2018-10-18T13:52:32.624Z,16.33
2018-10-18T13:55:00.121Z,12.88
2018-10-18T13:57:27.692Z,16.10
2018-10-18T14:00:11.589Z,16.32
2018-10-18T14:02:39.257Z,25.68
2018-10-18T14:05:06.945Z,24.75
2018-10-18T14:07:34.592Z,20.40
2018-10-18T14:10:02.246Z,13.38
2018-10-18T14:12:30.071Z,12.45
2018-10-18T14:14:57.812Z,17.15
2018-10-18T14:17:25.809Z,15.68
2018-10-18T14:19:53.230Z,15.30
2018-10-18T14:22:20.855Z,16.35
2018-10-18T14:24:48.841Z,13.25
2018-10-18T14:27:16.465Z,11.85
2018-10-18T14:29:44.321Z,14.60
2018-10-18T14:32:12.196Z,16.27
2018-10-18T14:34:39.592Z,13.05
2018-10-18T14:37:07.176Z,9.73
2018-10-18T14:39:34.766Z,11.17
2018-10-18T14:42:02.651Z,17.77
2018-10-18T14:44:30.316Z,65.47
2018-10-18T14:46:57.889Z,15.58
2018-10-18T14:49:25.370Z,12.57
2018-10-18T14:51:52.950Z,11.38
2018-10-18T14:54:20.473Z,11.60
2018-10-18T14:56:48.006Z,12.18
2018-10-18T14:59:15.681Z,10.80
2018-10-18T15:01:43.259Z,8.00
2018-10-18T15:04:10.855Z,12.33
2018-10-18T15:06:38.456Z,12.15
2018-10-18T15:09:07.616Z,10.48
2018-10-18T15:11:35.214Z,9.33
2018-10-18T15:14:03.103Z,10.90
2018-10-18T15:16:30.613Z,14.68
2018-10-18T15:18:58.134Z,9.50
2018-10-18T15:21:26.564Z,10.88
2018-10-18T15:23:54.120Z,11.50
2018-10-18T15:26:21.662Z,20.70
2018-10-18T15:28:49.225Z,20.15
2018-10-18T15:31:16.726Z,17.02
2018-10-18T15:33:44.309Z,21.30
2018-10-18T15:36:11.881Z,12.58
2018-10-18T15:38:39.892Z,13.50
2018-10-18T15:41:07.308Z,15.38
2018-10-18T15:43:35.114Z,9.95
2018-10-18T15:46:02.634Z,13.28
2018-10-18T15:48:30.357Z,14.13
2018-10-18T15:50:58.382Z,12.68
2018-10-18T15:53:25.983Z,11.97
2018-10-18T15:55:53.789Z,10.23
2018-10-18T15:58:21.325Z,11.63
2018-10-18T16:00:49.268Z,9.98
2018-10-18T16:03:16.816Z,9.65
2018-10-18T16:05:44.298Z,10.88
2018-10-18T16:08:12.565Z,6.40
2018-10-18T16:10:40.092Z,8.83
2018-10-18T16:13:07.942Z,192.75
2018-10-18T16:15:35.451Z,22.93
2018-10-18T16:18:03.014Z,11.05
2018-10-18T16:20:30.613Z,21.20
2018-10-18T16:22:58.229Z,19.02
2018-10-18T16:25:26.012Z,16.23
2018-10-18T16:27:53.546Z,33.15
2018-10-18T16:30:21.323Z,20.20
2018-10-18T16:33:00.442Z,12.13
2018-10-18T16:35:28.033Z,10.45
2018-10-18T16:37:55.669Z,5.95
2018-10-18T16:40:23.169Z,11.53
2018-10-18T16:42:50.753Z,9.43
2018-10-18T16:45:18.312Z,7.90
2018-10-18T16:47:46.105Z,8.70
2018-10-18T16:50:13.681Z,10.43
2018-10-18T16:52:41.209Z,7.13
2018-10-18T16:55:08.817Z,10.65
2018-10-18T16:57:36.460Z,9.93
2018-10-18T17:00:04.182Z,9.48
2018-10-18T17:02:31.781Z,10.32
2018-10-18T17:04:59.592Z,10.05
2018-10-18T17:07:27.181Z,11.75
2018-10-18T17:09:54.938Z,7.70
2018-10-18T17:12:22.389Z,19.82
2018-10-18T17:14:50.080Z,32.00
2018-10-18T17:17:17.551Z,8.33
2018-10-18T17:19:45.081Z,8.33
2018-10-18T17:22:12.600Z,13.25
2018-10-18T17:24:40.146Z,8.80
2018-10-18T17:27:07.944Z,8.10
2018-10-18T17:29:35.489Z,7.72
2018-10-18T17:32:03.045Z,10.75
2018-10-18T17:34:30.493Z,8.60
2018-10-18T17:36:58.065Z,8.53
2018-10-18T17:39:25.688Z,7.53
2018-10-18T17:41:53.577Z,15.37
2018-10-18T17:44:21.033Z,11.05
2018-10-18T17:46:48.615Z,10.45
2018-10-18T17:49:16.233Z,9.60
2018-10-18T17:51:43.756Z,9.18
2018-10-18T17:54:11.381Z,7.15
2018-10-18T17:56:38.902Z,7.25
2018-10-18T17:59:06.792Z,7.85
2018-10-18T18:01:34.290Z,8.13
2018-10-18T18:04:01.964Z,5.10
2018-10-18T18:06:29.770Z,6.42
2018-10-18T18:11:24.801Z,7.45
2018-10-18T18:13:52.569Z,88.03
2018-10-18T18:16:20.078Z,21.20
2018-10-18T18:18:47.797Z,8.85
2018-10-18T18:21:15.312Z,9.25
2018-10-18T18:23:43.113Z,6.97
2018-10-18T18:26:11.015Z,8.68
2018-10-18T18:28:38.565Z,8.43
2018-10-18T18:31:06.312Z,8.18
2018-10-18T18:33:33.914Z,7.67
2018-10-18T18:36:01.963Z,9.03
2018-10-18T18:38:29.480Z,9.35
2018-10-18T18:40:56.993Z,8.28
2018-10-18T18:43:25.024Z,10.68
2018-10-18T18:45:52.801Z,6.10
2018-10-18T18:48:20.580Z,10.30
2018-10-18T18:50:48.430Z,10.48
2018-10-18T18:53:16.020Z,7.15
2018-10-18T18:55:43.545Z,8.03
2018-10-18T18:58:11.280Z,5.40
2018-10-18T19:00:38.789Z,8.40
2018-10-18T19:03:06.582Z,7.60
2018-10-18T19:05:34.014Z,10.45
2018-10-18T19:08:01.760Z,7.87
2018-10-18T19:10:29.496Z,10.08
2018-10-18T19:12:57.000Z,8.55
2018-10-18T19:15:24.742Z,9.13
2018-10-18T19:17:52.281Z,9.60
2018-10-18T19:20:20.073Z,9.10
2018-10-18T19:22:47.679Z,7.90
2018-10-18T19:25:15.728Z,8.70
2018-10-18T19:27:43.472Z,8.93
2018-10-18T19:30:11.688Z,13.25
2018-10-18T19:32:39.242Z,10.23
2018-10-18T19:35:07.301Z,7.77
2018-10-18T19:37:35.021Z,8.60
2018-10-18T19:40:02.710Z,8.05
2018-10-18T19:42:30.274Z,9.13
2018-10-18T19:44:57.849Z,10.85
2018-10-18T19:47:25.442Z,11.65
2018-10-18T19:49:53.452Z,9.88
2018-10-18T19:52:21.156Z,13.28
2018-10-18T19:54:48.641Z,8.65
2018-10-18T19:57:16.472Z,10.25
2018-10-18T19:59:43.989Z,8.80
2018-10-18T20:02:11.516Z,10.60
2018-10-18T20:04:39.261Z,10.70
2018-10-18T20:07:06.738Z,15.43
2018-10-18T20:09:34.328Z,10.15
2018-10-18T20:12:01.801Z,9.33
2018-10-18T20:14:29.569Z,11.85
2018-10-18T20:16:57.638Z,9.53
2018-10-18T20:19:25.344Z,11.28
2018-10-18T20:21:53.157Z,11.50
2018-10-18T20:24:20.643Z,9.93
2018-10-18T20:26:48.512Z,11.60
2018-10-18T20:29:16.232Z,13.53
2018-10-18T20:31:43.736Z,10.75
2018-10-18T20:34:11.234Z,13.10
2018-10-18T20:36:38.944Z,8.00
2018-10-18T20:39:07.794Z,10.50
2018-10-18T20:41:35.335Z,7.33
2018-10-18T20:44:03.077Z,13.65
2018-10-18T20:46:31.067Z,10.27
2018-10-18T20:48:58.606Z,12.45
2018-10-18T20:51:26.399Z,9.33
2018-10-18T20:53:53.951Z,9.95
2018-10-18T20:56:21.415Z,12.37
2018-10-18T20:58:48.847Z,10.33
2018-10-18T21:01:16.308Z,10.28
2018-10-18T21:03:43.776Z,9.25
2018-10-18T21:06:11.368Z,10.20
2018-10-18T21:08:39.065Z,11.60
2018-10-18T21:11:06.634Z,11.95
2018-10-18T21:13:34.128Z,9.53
2018-10-18T21:16:01.630Z,11.65
2018-10-18T21:18:29.218Z,10.53
2018-10-18T21:20:56.840Z,12.20
2018-10-18T21:23:24.268Z,13.08
2018-10-18T21:25:51.752Z,10.38
2018-10-18T21:28:19.192Z,10.10
2018-10-18T21:30:46.723Z,9.73
2018-10-18T21:33:14.262Z,8.48
2018-10-18T21:35:41.785Z,11.93
2018-10-18T21:38:09.574Z,12.75
2018-10-18T21:40:37.069Z,9.33
2018-10-18T21:43:05.003Z,10.43
2018-10-18T21:45:32.536Z,9.28
2018-10-18T21:48:00.060Z,8.60
2018-10-18T21:50:27.580Z,14.75
2018-10-18T21:52:55.246Z,7.47
2018-10-18T21:55:23.010Z,8.58
2018-10-18T21:57:50.620Z,9.20
2018-10-18T22:00:18.254Z,10.10
2018-10-18T22:02:46.642Z,8.08
2018-10-18T22:05:14.914Z,11.30
2018-10-18T22:07:42.821Z,9.43
2018-10-18T22:10:10.843Z,10.50
2018-10-18T22:12:38.286Z,9.45
2018-10-18T22:15:06.307Z,8.70
2018-10-18T22:17:33.763Z,7.13
2018-10-18T22:20:01.536Z,9.73
2018-10-18T22:22:29.263Z,10.87
2018-10-18T22:24:56.713Z,10.40
2018-10-18T22:27:24.286Z,8.90
2018-10-18T22:29:51.821Z,6.87
2018-10-18T22:32:19.313Z,8.47
2018-10-18T22:34:47.006Z,10.03
2018-10-18T22:37:14.629Z,6.40
2018-10-18T22:39:42.072Z,8.90
2018-10-18T22:42:09.769Z,7.57
2018-10-18T22:44:37.594Z,8.80
2018-10-18T22:47:05.572Z,9.68
2018-10-18T22:49:33.231Z,7.85
2018-10-18T22:52:00.988Z,10.73
2018-10-18T22:54:28.559Z,9.08
2018-10-18T22:56:56.073Z,6.97
2018-10-18T22:59:23.564Z,8.23
2018-10-18T23:01:51.117Z,9.15
2018-10-18T23:04:18.901Z,6.97
2018-10-18T23:06:46.404Z,9.13
2018-10-18T23:09:14.101Z,7.90
2018-10-18T23:11:41.977Z,8.83
2018-10-18T23:14:10.972Z,7.30
2018-10-18T23:16:39.352Z,12.18
2018-10-18T23:19:08.041Z,7.70
2018-10-18T23:21:35.543Z,8.35
2018-10-18T23:24:03.261Z,6.92
2018-10-18T23:26:31.000Z,7.62
2018-10-18T23:28:58.818Z,9.45
2018-10-18T23:31:26.822Z,9.90
2018-10-18T23:33:54.433Z,9.53
2018-10-18T23:36:21.939Z,9.73
2018-10-18T23:38:49.794Z,8.37
2018-10-18T23:41:17.466Z,7.70
2018-10-18T23:43:44.992Z,8.93
2018-10-18T23:46:12.484Z,10.90
2018-10-18T23:48:39.987Z,8.05
2018-10-18T23:51:07.575Z,6.37
2018-10-18T23:53:35.385Z,7.22
2018-10-18T23:56:02.919Z,6.78
2018-10-18T23:58:30.487Z,5.53
